サルタ の空港の天気 - METARとTAF

サルタ空港 ( SASA / SLA ) - アルゼンチン サルタ州、Salta
飛行場実況気象(Metar)
観測時間11/12 00:00 ART (11/12 03:00 UTC)
風向・風速静穏 0m/s
視程10km以上
天気現象
なし
気温20℃
湿度78%
気圧1016hPa
METARSASA 120300Z 00000KT CAVOK 20/16 Q1016
過去の天気等 Google飛行場航空写真 Wunderground天気予報

過去48時間のMETAR

飛行場予報(TAF)
発表時間: 11/11 20:00 ART (11/11 23:00 UTC)
予報対象時間: 11日21時 ART ~ 12日21時 ART
風向・風速北 3m/s
視程7000m
天気現象雷雨
全天の4割程度の雲 雲底高度 760m
少しの積乱雲 雲底高度 910m
12日1時 ART ~ 12日4時 ART に徐々に
風向・風速北西 3m/s
視程10km以上
全天の8割程度の雲 雲底高度 610m
12日3時 ART ~ 12日7時 ART に一時的に
視程4000m
天気現象
全天を覆う雲 雲底高度 460m
12日11時 ART ~ 12日14時 ART に徐々に
風向・風速北東 5m/s
視程10km以上
全天の4割程度の雲 雲底高度 760m
少しの積乱雲 雲底高度 910m
TAF SASA 112300Z 1200/1224 36005KT 7000 TSRA SCT025 FEW030CB TX27/1318Z TN16/1210Z
BECMG 1204/1207 32005KT 9999 BKN020
TEMPO 1206/1210 4000 RA OVC015
BECMG 1214/1217 05010KT 9999 SCT025 FEW030CB